createdAt,value
2022-10-05T00:00:50.082Z,12.80
2022-10-05T00:03:17.518Z,12.80
2022-10-05T00:05:45.650Z,12.80
2022-10-05T00:08:15.080Z,12.80
2022-10-05T00:10:43.673Z,12.80
2022-10-05T00:13:15.727Z,12.80
2022-10-05T00:15:44.560Z,12.80
2022-10-05T00:18:14.732Z,12.80
2022-10-05T00:20:42.499Z,12.80
2022-10-05T00:23:15.081Z,12.80
2022-10-05T00:25:41.834Z,12.80
2022-10-05T00:28:16.285Z,12.70
2022-10-05T00:30:44.881Z,12.70
2022-10-05T00:33:12.208Z,12.70
2022-10-05T00:35:39.146Z,12.60
2022-10-05T00:38:06.162Z,12.70
2022-10-05T00:40:43.163Z,12.70
2022-10-05T00:43:34.539Z,12.70
2022-10-05T00:46:10.931Z,12.70
2022-10-05T00:48:45.947Z,12.60
2022-10-05T00:51:24.221Z,12.60
2022-10-05T00:54:01.768Z,12.60
2022-10-05T00:56:47.159Z,12.60
2022-10-05T00:59:21.803Z,12.50
2022-10-05T01:01:59.917Z,12.60
2022-10-05T01:04:34.115Z,12.60
2022-10-05T01:07:11.958Z,12.60
2022-10-05T01:09:44.901Z,12.50
2022-10-05T01:12:23.039Z,12.50
2022-10-05T01:14:55.805Z,12.50
2022-10-05T01:17:31.355Z,12.60
2022-10-05T01:20:18.571Z,12.60
2022-10-05T01:23:11.376Z,12.50
2022-10-05T01:25:48.064Z,12.50
2022-10-05T01:28:22.917Z,12.50
2022-10-05T01:30:58.104Z,12.50
2022-10-05T01:33:32.980Z,12.50
2022-10-05T01:36:06.348Z,12.40
2022-10-05T01:38:43.945Z,12.50
2022-10-05T01:41:22.665Z,12.40
2022-10-05T01:43:55.813Z,12.40
2022-10-05T01:46:27.098Z,12.40
2022-10-05T01:49:13.928Z,12.50
2022-10-05T01:51:50.263Z,12.40
2022-10-05T01:54:31.236Z,12.40
2022-10-05T01:57:06.777Z,12.40
2022-10-05T01:59:51.658Z,12.40
2022-10-05T02:02:20.998Z,12.40
2022-10-05T02:05:06.736Z,12.30
2022-10-05T02:07:38.614Z,12.20
2022-10-05T02:10:11.876Z,12.20
2022-10-05T02:12:38.621Z,12.20
2022-10-05T02:15:13.626Z,12.20
2022-10-05T02:17:45.355Z,12.10
2022-10-05T02:20:18.028Z,12.10
2022-10-05T02:22:49.085Z,12.10
2022-10-05T02:25:19.579Z,12.10
2022-10-05T02:27:49.911Z,12.10
2022-10-05T02:30:19.632Z,12.10
2022-10-05T02:32:52.961Z,12.10
2022-10-05T02:35:22.087Z,12.00
2022-10-05T02:38:00.652Z,12.00
2022-10-05T02:40:39.659Z,11.90
2022-10-05T02:43:14.963Z,11.90
2022-10-05T02:45:52.660Z,11.80
2022-10-05T02:48:28.679Z,11.90
2022-10-05T02:51:02.708Z,11.90
2022-10-05T02:53:37.713Z,11.90
2022-10-05T02:56:14.748Z,11.90
2022-10-05T02:58:50.054Z,11.90
2022-10-05T03:01:25.359Z,11.90
2022-10-05T03:03:59.363Z,11.90
2022-10-05T03:06:32.553Z,11.90
2022-10-05T03:09:02.796Z,12.00
2022-10-05T03:11:35.068Z,12.00
2022-10-05T03:14:08.190Z,12.00
2022-10-05T03:16:46.619Z,12.10
2022-10-05T03:19:25.598Z,12.10
2022-10-05T03:21:59.035Z,12.10
2022-10-05T03:24:40.784Z,12.10
2022-10-05T03:27:17.206Z,12.10
2022-10-05T03:29:49.941Z,12.20
2022-10-05T03:32:27.103Z,12.20
2022-10-05T03:34:59.710Z,12.10
2022-10-05T03:37:34.386Z,12.20
2022-10-05T03:40:08.524Z,12.30
2022-10-05T03:42:58.867Z,12.20
2022-10-05T03:45:32.770Z,12.20
2022-10-05T03:48:07.999Z,12.20
2022-10-05T03:50:44.991Z,12.20
2022-10-05T03:53:17.796Z,12.20
2022-10-05T03:55:49.619Z,12.20
2022-10-05T03:58:22.712Z,12.20
2022-10-05T04:00:55.951Z,12.20
2022-10-05T04:03:32.730Z,12.20
2022-10-05T04:06:07.066Z,12.20
2022-10-05T04:08:46.801Z,12.10
2022-10-05T04:11:19.783Z,12.10
2022-10-05T04:13:51.841Z,12.10
2022-10-05T04:16:23.192Z,12.10
2022-10-05T04:19:01.141Z,12.10
2022-10-05T04:21:32.241Z,12.10
2022-10-05T04:24:04.159Z,12.20
2022-10-05T04:26:37.111Z,12.20
2022-10-05T04:29:13.730Z,12.20
2022-10-05T04:31:54.738Z,12.10
2022-10-05T04:34:44.346Z,12.20
2022-10-05T04:37:18.093Z,12.20
2022-10-05T04:39:52.067Z,12.10
2022-10-05T04:42:27.040Z,12.20
2022-10-05T04:45:17.526Z,12.10
2022-10-05T04:47:57.754Z,12.10
2022-10-05T04:50:38.490Z,12.00
2022-10-05T04:53:14.502Z,12.00
2022-10-05T04:55:50.828Z,12.00
2022-10-05T04:58:29.158Z,12.10
2022-10-05T05:01:00.690Z,12.10
2022-10-05T05:03:39.863Z,12.00
2022-10-05T05:06:20.269Z,12.00
2022-10-05T05:09:17.503Z,12.00
2022-10-05T05:11:57.761Z,12.10
2022-10-05T05:14:55.500Z,12.10
2022-10-05T05:17:39.280Z,12.10
2022-10-05T05:20:19.243Z,12.10
2022-10-05T05:22:53.915Z,12.10
2022-10-05T05:25:31.558Z,12.10
2022-10-05T05:28:06.414Z,12.10
2022-10-05T05:30:38.791Z,12.10
2022-10-05T05:33:18.656Z,12.10
2022-10-05T05:36:11.860Z,12.10
2022-10-05T05:38:45.817Z,12.10
2022-10-05T05:41:16.367Z,12.10
2022-10-05T05:43:52.343Z,12.10
2022-10-05T05:46:44.569Z,12.10
2022-10-05T05:49:17.867Z,12.10
2022-10-05T05:51:50.211Z,12.10
2022-10-05T05:54:26.707Z,12.20
2022-10-05T05:56:58.586Z,12.10
2022-10-05T05:59:32.736Z,12.10
2022-10-05T06:02:05.879Z,12.20
2022-10-05T06:04:38.252Z,12.20
2022-10-05T06:07:05.780Z,12.10
2022-10-05T06:09:38.926Z,12.10
2022-10-05T06:12:09.837Z,12.20
2022-10-05T06:14:42.050Z,12.20
2022-10-05T06:17:13.898Z,12.10
2022-10-05T06:19:42.503Z,12.10
2022-10-05T06:22:17.186Z,12.20
2022-10-05T06:24:55.724Z,12.20
2022-10-05T06:27:26.941Z,12.20
2022-10-05T06:30:06.967Z,12.20
2022-10-05T06:32:39.094Z,12.20
2022-10-05T06:35:17.694Z,12.20
2022-10-05T06:38:07.666Z,12.20
2022-10-05T06:40:51.767Z,12.20
2022-10-05T06:43:30.552Z,12.20
2022-10-05T06:46:08.722Z,12.20
2022-10-05T06:48:46.750Z,12.20
2022-10-05T06:51:22.348Z,12.20
2022-10-05T06:53:57.083Z,12.30
2022-10-05T06:56:32.682Z,12.30
2022-10-05T06:59:07.506Z,12.30
2022-10-05T07:01:47.975Z,12.30
2022-10-05T07:04:49.538Z,12.30
2022-10-05T07:07:23.498Z,12.40
2022-10-05T07:10:01.932Z,12.40
2022-10-05T07:12:49.732Z,12.40
2022-10-05T07:15:29.936Z,12.40
2022-10-05T07:18:15.974Z,12.40
2022-10-05T07:20:50.295Z,12.40
2022-10-05T07:23:29.365Z,12.40
2022-10-05T07:26:04.608Z,12.40
2022-10-05T07:28:44.105Z,12.50
2022-10-05T07:31:18.627Z,12.50
2022-10-05T07:33:53.000Z,12.50
2022-10-05T07:36:29.385Z,12.50
2022-10-05T07:39:01.261Z,12.50
2022-10-05T07:41:34.035Z,12.60
2022-10-05T07:44:12.966Z,12.60
2022-10-05T07:46:50.690Z,12.60
2022-10-05T07:49:26.454Z,12.70
2022-10-05T07:51:56.532Z,12.70
2022-10-05T07:54:28.567Z,12.70
2022-10-05T07:57:03.037Z,12.70
2022-10-05T07:59:38.533Z,12.70
2022-10-05T08:02:16.042Z,12.80
2022-10-05T08:04:53.270Z,12.90
2022-10-05T08:07:20.234Z,12.90
2022-10-05T08:09:53.429Z,12.90
2022-10-05T08:12:28.425Z,13.00
2022-10-05T08:15:00.025Z,13.10
2022-10-05T08:17:38.334Z,13.20
2022-10-05T08:20:18.692Z,13.20
2022-10-05T08:22:49.376Z,13.30
2022-10-05T08:25:24.891Z,13.40
2022-10-05T08:27:55.966Z,13.50
2022-10-05T08:30:25.087Z,13.50
2022-10-05T08:32:56.993Z,13.50
2022-10-05T08:35:29.984Z,13.70
2022-10-05T08:37:57.647Z,13.50
2022-10-05T08:40:53.494Z,13.60
2022-10-05T08:43:36.769Z,13.70
2022-10-05T08:46:53.303Z,13.60
2022-10-05T08:49:58.201Z,13.80
2022-10-05T08:52:28.328Z,13.80
2022-10-05T08:55:22.789Z,13.90
2022-10-05T08:58:10.040Z,14.00
2022-10-05T09:00:44.351Z,13.90
2022-10-05T09:03:34.459Z,14.10
2022-10-05T09:06:23.787Z,14.20
2022-10-05T09:09:07.013Z,14.30
2022-10-05T09:11:36.937Z,14.40
2022-10-05T09:14:21.411Z,14.10
2022-10-05T09:17:11.062Z,14.40
2022-10-05T09:20:06.247Z,14.80
2022-10-05T09:22:46.143Z,14.80
2022-10-05T09:25:22.062Z,14.80
2022-10-05T09:27:54.754Z,15.10
2022-10-05T09:30:33.549Z,15.10
2022-10-05T09:33:43.269Z,15.10
2022-10-05T09:36:54.962Z,15.10
2022-10-05T09:39:44.751Z,15.10
2022-10-05T09:42:54.619Z,15.20
2022-10-05T09:45:47.122Z,15.00
2022-10-05T09:48:43.789Z,14.80
2022-10-05T09:52:18.625Z,15.20
2022-10-05T09:55:22.818Z,15.40
2022-10-05T09:58:03.394Z,15.40
2022-10-05T10:00:50.065Z,15.50
2022-10-05T10:04:03.911Z,15.80
2022-10-05T10:06:47.076Z,15.60
2022-10-05T10:09:23.413Z,15.70
2022-10-05T10:12:11.076Z,15.80
2022-10-05T10:15:09.712Z,15.70
2022-10-05T10:17:55.280Z,16.00
2022-10-05T10:20:33.660Z,16.00
2022-10-05T10:23:30.030Z,16.50
2022-10-05T10:26:38.341Z,16.30
2022-10-05T10:29:30.445Z,16.50
2022-10-05T10:32:17.299Z,16.50
2022-10-05T10:35:14.226Z,16.50
2022-10-05T10:38:13.607Z,16.20
2022-10-05T10:40:59.991Z,16.00
2022-10-05T10:43:51.347Z,16.00
2022-10-05T10:46:35.379Z,16.10
2022-10-05T10:49:15.432Z,16.00
2022-10-05T10:52:10.388Z,16.10
2022-10-05T10:54:59.000Z,16.20
2022-10-05T10:57:39.944Z,15.80
2022-10-05T11:00:37.522Z,15.90
2022-10-05T11:03:44.261Z,16.10
2022-10-05T11:06:37.744Z,16.20
2022-10-05T11:09:34.042Z,16.30
2022-10-05T11:12:17.368Z,16.10
2022-10-05T11:15:12.592Z,16.20
2022-10-05T11:17:59.321Z,15.80
2022-10-05T11:21:00.648Z,15.90
2022-10-05T11:24:01.506Z,15.80
2022-10-05T11:26:42.359Z,16.00
2022-10-05T11:29:40.670Z,16.00
2022-10-05T11:32:40.499Z,16.20
2022-10-05T11:35:32.014Z,16.20
2022-10-05T11:38:15.687Z,16.30
2022-10-05T11:41:02.922Z,16.10
2022-10-05T11:43:47.630Z,16.30
2022-10-05T11:46:18.547Z,16.60
2022-10-05T11:49:15.382Z,16.60
2022-10-05T11:51:54.728Z,16.50
2022-10-05T11:54:38.290Z,16.20
2022-10-05T11:57:17.947Z,16.40
2022-10-05T11:59:52.907Z,16.30
2022-10-05T12:02:42.856Z,16.70
2022-10-05T12:05:18.944Z,16.70
2022-10-05T12:07:56.986Z,16.50
2022-10-05T12:10:34.034Z,16.80
2022-10-05T12:13:21.238Z,16.40
2022-10-05T12:15:56.911Z,16.50
2022-10-05T12:18:41.793Z,16.80
2022-10-05T12:21:17.250Z,16.80
2022-10-05T12:23:49.534Z,17.00
2022-10-05T12:26:22.971Z,17.10
2022-10-05T12:28:53.554Z,16.90
2022-10-05T12:31:33.948Z,17.20
2022-10-05T12:34:12.642Z,17.60
2022-10-05T12:37:03.456Z,18.10
2022-10-05T12:39:39.154Z,17.60
2022-10-05T12:42:18.863Z,17.50
2022-10-05T12:45:02.201Z,17.50
2022-10-05T12:47:39.187Z,17.80
2022-10-05T12:50:22.502Z,17.60
2022-10-05T12:53:03.901Z,17.60
2022-10-05T12:55:39.790Z,17.40
2022-10-05T12:58:23.215Z,17.30
2022-10-05T13:00:54.517Z,17.20
2022-10-05T13:03:25.389Z,17.20
2022-10-05T13:06:02.746Z,17.40
2022-10-05T13:08:40.053Z,17.40
2022-10-05T13:11:15.289Z,17.50
2022-10-05T13:13:51.774Z,17.20
2022-10-05T13:16:27.597Z,17.80
2022-10-05T13:19:07.919Z,17.40
2022-10-05T13:21:52.750Z,17.80
2022-10-05T13:24:23.527Z,17.90
2022-10-05T13:26:54.985Z,18.10
2022-10-05T13:29:29.403Z,18.00
2022-10-05T13:31:59.670Z,17.90
2022-10-05T13:34:35.682Z,18.20
2022-10-05T13:37:11.703Z,18.00
2022-10-05T13:39:50.078Z,17.70
2022-10-05T13:42:21.375Z,18.20
2022-10-05T13:44:55.582Z,18.00
2022-10-05T13:47:29.634Z,18.30
2022-10-05T13:50:02.126Z,18.50
2022-10-05T13:52:42.530Z,17.90
2022-10-05T13:55:33.119Z,17.90
2022-10-05T13:58:05.687Z,17.60
2022-10-05T14:00:44.084Z,17.60
2022-10-05T14:03:25.340Z,17.40
2022-10-05T14:05:57.293Z,17.30
2022-10-05T14:08:28.560Z,17.30
2022-10-05T14:10:57.148Z,17.60
2022-10-05T14:13:27.126Z,18.00
2022-10-05T14:16:14.541Z,17.70
2022-10-05T14:18:55.600Z,17.40
2022-10-05T14:21:24.680Z,17.40
2022-10-05T14:23:52.719Z,17.30
2022-10-05T14:26:31.842Z,17.50
2022-10-05T14:29:01.599Z,17.40
2022-10-05T14:31:33.183Z,17.20
2022-10-05T14:34:30.122Z,17.20
2022-10-05T14:36:59.552Z,17.10
2022-10-05T14:39:28.534Z,17.20
2022-10-05T14:41:55.666Z,17.30
2022-10-05T14:47:16.813Z,17.20
2022-10-05T14:49:50.153Z,17.40
2022-10-05T14:52:30.612Z,17.40
2022-10-05T14:55:02.023Z,17.30
2022-10-05T14:57:36.208Z,17.30
2022-10-05T15:00:10.763Z,17.10
2022-10-05T15:02:56.852Z,17.10
2022-10-05T15:05:28.702Z,16.90
2022-10-05T15:08:01.349Z,16.70
2022-10-05T15:10:33.642Z,16.70
2022-10-05T15:13:11.433Z,16.60
2022-10-05T15:15:45.530Z,16.50
2022-10-05T15:18:31.844Z,16.40
2022-10-05T15:21:10.323Z,16.40
2022-10-05T15:23:41.914Z,16.30
2022-10-05T15:26:23.399Z,16.20
2022-10-05T15:28:58.283Z,16.20
2022-10-05T15:31:34.065Z,16.20
2022-10-05T15:34:08.997Z,16.10
2022-10-05T15:36:40.197Z,15.90
2022-10-05T15:39:17.628Z,15.80
2022-10-05T15:41:56.482Z,15.70
2022-10-05T15:44:33.743Z,15.70
2022-10-05T15:47:06.102Z,15.60
2022-10-05T15:49:42.244Z,15.60
2022-10-05T15:52:16.759Z,15.50
2022-10-05T15:55:07.879Z,15.50
2022-10-05T15:57:44.514Z,15.50
2022-10-05T16:00:13.995Z,15.40
2022-10-05T16:02:41.750Z,15.40
2022-10-05T16:05:24.652Z,15.30
2022-10-05T16:07:54.226Z,15.20
2022-10-05T16:10:23.404Z,15.20
2022-10-05T16:13:02.186Z,15.20
2022-10-05T16:15:35.439Z,15.10
2022-10-05T16:18:20.180Z,15.10
2022-10-05T16:20:53.676Z,15.10
2022-10-05T16:23:32.458Z,15.10
2022-10-05T16:26:14.067Z,15.00
2022-10-05T16:28:49.050Z,15.00
2022-10-05T16:31:21.121Z,15.00
2022-10-05T16:33:58.232Z,14.90
2022-10-05T16:36:39.666Z,14.90
2022-10-05T16:39:14.039Z,14.90
2022-10-05T16:41:49.642Z,14.90
2022-10-05T16:44:30.227Z,14.80
2022-10-05T16:47:03.950Z,14.80
2022-10-05T16:49:40.970Z,14.80
2022-10-05T16:52:13.374Z,14.80
2022-10-05T16:54:47.709Z,14.90
2022-10-05T16:57:21.019Z,14.80
2022-10-05T17:00:05.630Z,14.80
2022-10-05T17:02:54.445Z,14.80
2022-10-05T17:05:43.553Z,14.80
2022-10-05T17:08:32.420Z,14.80
2022-10-05T17:11:06.763Z,14.80
2022-10-05T17:13:51.807Z,14.70
2022-10-05T17:16:26.891Z,14.80
2022-10-05T17:19:30.292Z,14.80
2022-10-05T17:21:58.929Z,14.80
2022-10-05T17:24:51.890Z,14.80
2022-10-05T17:27:26.262Z,14.80
2022-10-05T17:29:55.246Z,14.80
2022-10-05T17:32:34.436Z,14.80
2022-10-05T17:35:19.171Z,14.80
2022-10-05T17:38:14.841Z,14.80
2022-10-05T17:41:16.699Z,14.80
2022-10-05T17:44:18.094Z,14.80
2022-10-05T17:46:46.918Z,14.80
2022-10-05T17:49:21.227Z,14.80
2022-10-05T17:52:19.922Z,14.90
2022-10-05T17:55:21.742Z,14.90
2022-10-05T17:57:50.423Z,14.90
2022-10-05T18:00:39.315Z,14.90
2022-10-05T18:03:46.120Z,14.90
2022-10-05T18:06:37.651Z,14.90
2022-10-05T18:09:35.969Z,14.90
2022-10-05T18:12:26.213Z,14.80
2022-10-05T18:15:00.823Z,14.90
2022-10-05T18:17:44.053Z,15.00
2022-10-05T18:20:29.983Z,14.90
2022-10-05T18:23:27.756Z,14.90
2022-10-05T18:26:03.672Z,14.90
2022-10-05T18:28:41.766Z,14.90
2022-10-05T18:31:17.152Z,15.00
2022-10-05T18:34:16.430Z,15.00
2022-10-05T18:36:59.100Z,15.00
2022-10-05T18:39:45.437Z,15.10
2022-10-05T18:42:19.583Z,15.00
2022-10-05T18:44:49.805Z,15.10
2022-10-05T18:47:27.101Z,15.10
2022-10-05T18:50:04.986Z,15.10
2022-10-05T18:52:44.795Z,15.10
2022-10-05T18:55:19.950Z,15.10
2022-10-05T18:58:14.630Z,15.10
2022-10-05T19:01:01.079Z,15.10
2022-10-05T19:03:37.068Z,15.10
2022-10-05T19:06:13.206Z,15.20
2022-10-05T19:08:50.257Z,15.20
2022-10-05T19:11:25.576Z,15.20
2022-10-05T19:14:03.035Z,15.20
2022-10-05T19:16:50.188Z,15.20
2022-10-05T19:19:43.315Z,15.20
2022-10-05T19:22:18.840Z,15.30
2022-10-05T19:25:00.157Z,15.20
2022-10-05T19:27:35.989Z,15.30
2022-10-05T19:30:14.000Z,15.40
2022-10-05T19:32:55.520Z,15.30
2022-10-05T19:35:32.603Z,15.30
2022-10-05T19:40:51.504Z,15.30
2022-10-05T19:43:35.483Z,15.40
2022-10-05T19:46:16.309Z,15.30
2022-10-05T19:48:48.450Z,15.20
2022-10-05T19:51:26.357Z,15.20
2022-10-05T19:53:53.585Z,15.20
2022-10-05T19:56:22.956Z,15.20
2022-10-05T19:58:50.302Z,15.20
2022-10-05T20:01:28.568Z,15.10
2022-10-05T20:03:55.949Z,15.10
2022-10-05T20:06:24.251Z,15.10
2022-10-05T20:08:53.314Z,15.10
2022-10-05T20:11:22.065Z,15.10
2022-10-05T20:14:19.682Z,15.10
2022-10-05T20:16:47.063Z,15.10
2022-10-05T20:19:29.182Z,15.00
2022-10-05T20:21:57.838Z,15.00
2022-10-05T20:24:26.730Z,14.90
2022-10-05T20:26:54.621Z,14.90
2022-10-05T20:29:21.956Z,14.80
2022-10-05T20:31:48.762Z,14.80
2022-10-05T20:34:15.510Z,14.80
2022-10-05T20:36:42.844Z,14.70
2022-10-05T20:39:10.959Z,14.70
2022-10-05T20:41:37.674Z,14.70
2022-10-05T20:44:05.043Z,14.30
2022-10-05T20:46:31.766Z,13.90
2022-10-05T20:48:58.532Z,13.50
2022-10-05T20:51:25.971Z,13.20
2022-10-05T20:53:52.669Z,12.90
2022-10-05T20:56:20.724Z,12.60
2022-10-05T20:58:48.031Z,12.40
2022-10-05T21:01:14.997Z,12.20
2022-10-05T21:03:41.970Z,12.00
2022-10-05T21:06:10.219Z,11.90
2022-10-05T21:08:36.986Z,11.60
2022-10-05T21:11:04.078Z,11.40
2022-10-05T21:13:32.790Z,11.20
2022-10-05T21:15:59.621Z,11.20
2022-10-05T21:18:26.630Z,11.10
2022-10-05T21:20:57.557Z,11.10
2022-10-05T21:23:26.618Z,11.10
2022-10-05T21:25:53.918Z,11.10
2022-10-05T21:28:20.782Z,11.00
2022-10-05T21:30:48.977Z,11.00
2022-10-05T21:33:16.476Z,11.00
2022-10-05T21:35:43.303Z,11.00
2022-10-05T21:38:10.035Z,11.00
2022-10-05T21:40:37.581Z,11.00
2022-10-05T21:43:04.435Z,10.90
2022-10-05T21:45:31.458Z,11.00
2022-10-05T21:48:00.227Z,11.00
2022-10-05T21:50:27.299Z,11.00
2022-10-05T21:52:54.197Z,11.00
2022-10-05T21:55:21.595Z,11.00
2022-10-05T21:57:48.320Z,11.00
2022-10-05T22:00:15.219Z,11.00
2022-10-05T22:02:42.644Z,11.10
2022-10-05T22:05:10.690Z,11.10
2022-10-05T22:07:37.385Z,11.10
2022-10-05T22:10:05.687Z,11.20
2022-10-05T22:12:33.983Z,11.20
2022-10-05T22:15:00.764Z,11.10
2022-10-05T22:17:29.839Z,11.00
2022-10-05T22:19:57.456Z,11.00
2022-10-05T22:22:25.831Z,11.00
2022-10-05T22:24:53.476Z,10.90
2022-10-05T22:27:21.180Z,11.00
2022-10-05T22:29:48.338Z,10.90
2022-10-05T22:32:15.646Z,10.70
2022-10-05T22:34:42.378Z,10.70
2022-10-05T22:37:11.621Z,10.70
2022-10-05T22:39:40.673Z,10.80
2022-10-05T22:42:07.724Z,10.90
2022-10-05T22:44:34.879Z,10.80
2022-10-05T22:47:03.178Z,10.80
2022-10-05T22:49:29.876Z,10.90
2022-10-05T22:51:56.670Z,10.90
2022-10-05T22:54:28.694Z,11.00
2022-10-05T22:56:57.786Z,11.20
2022-10-05T22:59:25.113Z,11.00
2022-10-05T23:01:51.976Z,10.90
2022-10-05T23:04:18.763Z,10.90
2022-10-05T23:06:46.103Z,11.10
2022-10-05T23:09:12.806Z,11.10
2022-10-05T23:11:39.539Z,11.10
2022-10-05T23:14:08.212Z,11.20
2022-10-05T23:16:34.943Z,11.10
2022-10-05T23:19:01.744Z,11.20
2022-10-05T23:21:29.960Z,11.10
2022-10-05T23:23:56.877Z,11.30
2022-10-05T23:26:24.785Z,11.30
2022-10-05T23:28:52.279Z,11.30
2022-10-05T23:31:22.666Z,11.40
2022-10-05T23:33:49.649Z,11.40
2022-10-05T23:36:18.634Z,11.20
2022-10-05T23:38:45.767Z,11.20
2022-10-05T23:41:12.785Z,11.30
2022-10-05T23:43:40.181Z,11.30
2022-10-05T23:46:08.438Z,11.20
2022-10-05T23:48:36.730Z,11.10
2022-10-05T23:51:04.167Z,11.10
2022-10-05T23:53:30.874Z,10.90
2022-10-05T23:55:57.641Z,11.00
2022-10-05T23:58:25.760Z,10.80
